Time;durP1;ratioP1;P1;durP2;ratioP2;P2;SDS_P1;SDS_P2;PMS_P1;PMS_P2;Temp;Humidity;BMP_temperature;BMP_pressure;BME280_temperature;BME280_humidity;BME280_pressure;Samples;Min_cycle;Max_cycle;Signal;HPM_P1;HPM_P2
2021/11/20 00:01:24;;;;;;;7.90;5.20;;;;;;;9.70;53.94;100133.16;5013232;28;20489;-50
2021/11/20 00:03:49;;;;;;;7.63;4.80;;;;;;;9.54;54.56;100136.91;5013156;28;20018;-49
2021/11/20 00:06:18;;;;;;;6.60;4.60;;;;;;;9.36;55.29;100133.81;5012011;28;20021;-49
2021/11/20 00:08:43;;;;;;;8.45;4.78;;;;;;;9.58;55.23;100148.78;5013117;28;20030;-48
2021/11/20 00:11:10;;;;;;;7.80;5.35;;;;;;;9.69;54.64;100146.66;5011565;28;20076;-49
2021/11/20 00:13:35;;;;;;;7.25;5.00;;;;;;;9.74;54.50;100138.94;5013161;28;20133;-48
2021/11/20 00:16:02;;;;;;;9.05;4.88;;;;;;;9.74;54.88;100136.28;5011796;28;20459;-49
2021/11/20 00:18:29;;;;;;;7.55;4.97;;;;;;;9.55;55.31;100141.19;5013230;28;20033;-49
2021/11/20 00:20:58;;;;;;;8.75;4.90;;;;;;;9.46;55.67;100126.38;5012902;28;20119;-50
2021/11/20 00:23:43;;;;;;;9.27;5.10;;;;;;;9.46;56.00;100131.69;5013591;28;20029;-48
2021/11/20 00:26:10;;;;;;;10.10;5.57;;;;;;;9.62;55.74;100141.28;5013498;28;20045;-48
2021/11/20 00:31:22;;;;;;;10.32;5.72;;;;;;;9.57;56.28;100144.47;5013120;28;20034;-48
2021/11/20 00:33:47;;;;;;;8.80;5.65;;;;;;;9.58;56.70;100153.28;5012830;28;20103;-48
2021/11/20 00:36:13;;;;;;;10.63;6.18;;;;;;;9.57;56.65;100143.66;5012948;28;20061;-50
2021/11/20 00:38:38;;;;;;;8.65;5.60;;;;;;;9.56;56.07;100129.56;5012108;28;20029;-47
2021/11/20 00:41:07;;;;;;;9.70;5.53;;;;;;;9.67;56.66;100135.38;5013250;28;20120;-47
2021/11/20 00:43:34;;;;;;;11.30;5.75;;;;;;;9.30;57.52;100130.06;5013779;28;20466;-48
2021/11/20 00:45:59;;;;;;;8.63;5.60;;;;;;;9.38;57.75;100142.41;5013382;28;20598;-48
2021/11/20 00:48:25;;;;;;;10.40;5.15;;;;;;;9.27;57.63;100145.53;5013091;28;20065;-48
2021/11/20 00:50:53;;;;;;;9.45;5.80;;;;;;;9.27;57.62;100138.41;5013137;28;20391;-48
2021/11/20 00:53:18;;;;;;;9.70;5.55;;;;;;;9.46;57.40;100130.84;5013171;28;20041;-49
2021/11/20 00:55:44;;;;;;;9.50;5.53;;;;;;;9.55;57.04;100129.75;5012747;28;20046;-49
2021/11/20 00:58:10;;;;;;;9.77;5.78;;;;;;;9.48;57.16;100120.88;5013242;28;20030;-48
2021/11/20 01:00:44;;;;;;;7.03;4.95;;;;;;;9.30;57.86;100119.44;5013030;28;20111;-49
2021/11/20 01:03:10;;;;;;;8.32;5.10;;;;;;;9.15;58.61;100131.91;5013141;28;20049;-49
2021/11/20 01:05:35;;;;;;;12.13;5.50;;;;;;;9.31;58.03;100129.06;5012911;28;20398;-47
2021/11/20 01:08:01;;;;;;;8.52;5.18;;;;;;;9.25;58.24;100127.13;5012969;28;20112;-49
2021/11/20 01:10:29;;;;;;;9.88;5.40;;;;;;;9.14;58.67;100131.09;5012722;28;20088;-49
2021/11/20 01:12:54;;;;;;;12.38;5.97;;;;;;;9.14;58.91;100112.50;5012842;28;20018;-49
2021/11/20 01:15:24;;;;;;;9.40;5.90;;;;;;;9.18;59.27;100120.94;5011389;28;20098;-48
2021/11/20 01:17:49;;;;;;;10.40;5.65;;;;;;;8.97;59.58;100117.19;5012687;28;20058;-48
2021/11/20 01:20:15;;;;;;;8.95;5.57;;;;;;;8.92;59.58;100122.22;5012726;28;20062;-49
2021/11/20 01:22:40;;;;;;;9.25;5.72;;;;;;;8.91;59.62;100120.59;5012700;28;20390;-50
2021/11/20 01:25:06;;;;;;;9.15;5.80;;;;;;;8.96;59.38;100120.03;5012886;28;20029;-53
2021/11/20 01:27:32;;;;;;;9.27;5.70;;;;;;;9.00;59.62;100119.50;5011181;28;20414;-49
2021/11/20 01:29:57;;;;;;;12.52;6.03;;;;;;;9.00;59.57;100118.66;5012185;28;20026;-51
2021/11/20 01:32:23;;;;;;;10.98;6.30;;;;;;;8.91;60.26;100119.75;5012423;28;20065;-49
2021/11/20 01:34:48;;;;;;;10.57;6.30;;;;;;;9.09;59.42;100106.91;5012414;28;20054;-49
2021/11/20 01:37:19;;;;;;;10.02;6.05;;;;;;;9.62;58.13;100114.69;5012272;28;20340;-49
2021/11/20 01:39:45;;;;;;;10.32;5.28;;;;;;;9.25;59.03;100108.53;5012319;28;20021;-50
2021/11/20 01:42:14;;;;;;;11.43;5.90;;;;;;;9.26;59.14;100094.25;5012450;28;20036;-48
2021/11/20 01:44:51;;;;;;;8.60;5.82;;;;;;;9.22;58.99;100093.00;5012251;28;20021;-50
2021/11/20 01:47:25;;;;;;;10.27;5.60;;;;;;;8.92;60.05;100102.81;5011164;28;20045;-48
2021/11/20 01:49:56;;;;;;;9.00;5.82;;;;;;;9.11;59.78;100096.94;5012213;28;20026;-50
2021/11/20 01:52:44;;;;;;;9.55;6.15;;;;;;;9.23;59.33;100096.47;5012833;28;20029;-48
2021/11/20 01:55:10;;;;;;;10.30;6.10;;;;;;;8.89;60.61;100088.09;5010721;28;20187;-48
2021/11/20 01:57:38;;;;;;;8.90;5.65;;;;;;;8.86;61.11;100088.44;5012108;28;20533;-48
2021/11/20 02:00:16;;;;;;;9.98;6.13;;;;;;;8.85;60.88;100091.28;5012111;28;20030;-49
2021/11/20 02:02:47;;;;;;;10.20;6.32;;;;;;;9.22;60.08;100089.53;5012239;28;20445;-48
2021/11/20 02:05:41;;;;;;;11.32;6.10;;;;;;;9.32;59.34;100077.56;5012132;28;20034;-51
2021/11/20 02:08:13;;;;;;;11.07;6.22;;;;;;;9.11;60.19;100073.03;5010590;28;20061;-48
2021/11/20 02:10:51;;;;;;;10.18;5.90;;;;;;;8.77;61.26;100068.31;4994993;28;20037;-48
2021/11/20 02:13:19;;;;;;;9.85;5.65;;;;;;;8.77;61.40;100060.34;5012263;28;20030;-48
2021/11/20 02:15:45;;;;;;;10.65;5.95;;;;;;;9.04;60.71;100071.31;5011910;28;20367;-50
2021/11/20 02:18:11;;;;;;;12.38;6.10;;;;;;;9.11;60.12;100070.38;5012007;28;20240;-48
2021/11/20 02:20:39;;;;;;;10.65;5.88;;;;;;;9.37;59.14;100074.38;5010563;28;20029;-49
2021/11/20 02:23:05;;;;;;;11.15;6.18;;;;;;;8.83;60.72;100058.81;5010167;28;20030;-51
2021/11/20 02:25:30;;;;;;;8.60;5.65;;;;;;;8.62;61.44;100055.06;5012036;28;20032;-48
2021/11/20 02:27:56;;;;;;;8.77;5.45;;;;;;;8.46;62.33;100056.06;5010496;28;20033;-48
2021/11/20 02:30:29;;;;;;;10.25;6.43;;;;;;;8.75;61.38;100057.88;5011771;28;20083;-48
2021/11/20 02:33:08;;;;;;;9.07;5.55;;;;;;;8.87;61.01;100055.59;5011577;28;20026;-48
2021/11/20 02:35:39;;;;;;;10.40;5.63;;;;;;;8.75;60.96;100052.56;5009877;28;20029;-49
2021/11/20 02:38:05;;;;;;;9.70;5.40;;;;;;;8.96;60.48;100065.09;5011358;28;20058;-48
2021/11/20 02:40:30;;;;;;;8.88;5.13;;;;;;;9.34;59.01;100059.63;5011094;28;20030;-50
2021/11/20 02:42:56;;;;;;;9.30;5.43;;;;;;;9.09;59.64;100048.50;5011454;28;20106;-48
2021/11/20 02:45:33;;;;;;;7.90;5.18;;;;;;;9.14;58.59;100054.09;5011385;28;20036;-50
2021/11/20 02:47:58;;;;;;;9.25;5.32;;;;;;;8.78;60.09;100046.91;5011504;28;20037;-50
2021/11/20 02:50:45;;;;;;;7.85;5.13;;;;;;;8.91;59.70;100053.38;5011194;28;20084;-49
2021/11/20 02:53:16;;;;;;;7.43;4.88;;;;;;;9.09;59.59;100058.31;5011135;28;20061;-47
2021/11/20 02:55:43;;;;;;;8.70;4.90;;;;;;;9.50;58.01;100055.06;5011189;28;20048;-48
2021/11/20 02:58:09;;;;;;;8.63;5.00;;;;;;;9.29;58.58;100056.72;5011332;28;20045;-48
2021/11/20 03:00:34;;;;;;;8.50;5.28;;;;;;;9.15;58.82;100054.91;5011264;28;20363;-51
2021/11/20 03:03:00;;;;;;;7.75;4.55;;;;;;;8.92;59.61;100050.56;5011243;28;20061;-49
2021/11/20 03:05:25;;;;;;;7.65;4.95;;;;;;;9.03;59.58;100043.97;5011158;28;20038;-49
2021/11/20 03:07:51;;;;;;;7.30;4.85;;;;;;;8.90;60.21;100041.13;5010948;28;20025;-48
2021/11/20 03:10:16;;;;;;;9.18;5.00;;;;;;;9.37;58.75;100038.00;5010969;28;20033;-50
2021/11/20 03:12:42;;;;;;;10.90;5.03;;;;;;;9.29;59.35;100051.41;5010799;28;20441;-49
2021/11/20 03:15:07;;;;;;;8.98;5.55;;;;;;;9.22;59.80;100034.56;5011293;28;20026;-50
2021/11/20 03:17:33;;;;;;;10.60;5.00;;;;;;;9.36;59.45;100035.53;5010993;28;20033;-52
2021/11/20 03:19:58;;;;;;;7.45;5.13;;;;;;;9.22;59.86;100037.22;5010672;28;20363;-50
2021/11/20 03:22:24;;;;;;;8.48;5.43;;;;;;;9.04;60.55;100036.81;5010932;28;20034;-49
2021/11/20 03:24:49;;;;;;;8.10;4.90;;;;;;;8.94;60.88;100029.94;5010680;28;20026;-48
2021/11/20 03:27:15;;;;;;;7.10;5.15;;;;;;;8.89;61.33;100048.28;5009399;28;20022;-48
2021/11/20 03:29:41;;;;;;;9.38;5.32;;;;;;;8.95;61.39;100033.44;5008993;28;20025;-48
2021/11/20 03:32:07;;;;;;;8.85;5.10;;;;;;;9.16;60.97;100032.69;5010460;28;20117;-49
2021/11/20 03:34:33;;;;;;;9.43;5.55;;;;;;;9.17;60.74;100029.81;5010849;28;20497;-49
2021/11/20 03:36:58;;;;;;;8.10;5.30;;;;;;;9.15;61.09;100025.69;5010631;28;20037;-48
2021/11/20 03:39:24;;;;;;;8.50;5.70;;;;;;;9.34;61.04;100022.44;5010659;28;20413;-51
2021/11/20 03:41:49;;;;;;;8.25;5.50;;;;;;;9.37;60.49;100016.75;5010568;28;20022;-50
2021/11/20 03:44:14;;;;;;;8.93;5.63;;;;;;;9.30;60.50;100013.19;5010454;28;20399;-51
2021/11/20 03:46:40;;;;;;;8.27;5.80;;;;;;;9.34;60.32;100014.47;5010571;28;20046;-48
2021/11/20 03:49:05;;;;;;;7.40;5.28;;;;;;;9.26;61.02;100005.81;5010661;28;20033;-49
2021/11/20 03:51:31;;;;;;;7.40;5.40;;;;;;;9.10;61.46;100009.50;5010279;28;20026;-52
2021/11/20 03:53:56;;;;;;;9.88;5.60;;;;;;;9.13;61.92;100006.47;5010323;28;20080;-53
2021/11/20 03:56:22;;;;;;;8.95;5.65;;;;;;;9.26;61.13;99998.66;5010106;28;20402;-48
2021/11/20 03:58:48;;;;;;;8.40;5.55;;;;;;;9.24;61.49;99998.03;5009137;28;20104;-49
2021/11/20 04:01:15;;;;;;;9.05;5.57;;;;;;;9.14;62.04;99989.56;5010881;28;20057;-49
2021/11/20 04:03:41;;;;;;;9.65;5.68;;;;;;;9.20;61.77;99981.66;5010361;28;20105;-49
2021/11/20 04:06:12;;;;;;;8.82;5.68;;;;;;;9.39;61.40;99985.50;5010601;28;20387;-50
2021/11/20 04:08:48;;;;;;;8.73;5.80;;;;;;;9.35;61.42;100002.84;5010539;28;20041;-50
2021/11/20 04:11:15;;;;;;;8.63;5.40;;;;;;;9.43;61.49;99978.00;5014218;28;20029;-50
2021/11/20 04:13:41;;;;;;;8.82;5.28;;;;;;;9.48;61.32;99998.66;5013699;28;20040;-49
2021/11/20 04:16:07;;;;;;;8.75;5.32;;;;;;;9.54;61.21;99988.09;5013882;28;20021;-49
2021/11/20 04:18:32;;;;;;;7.57;5.03;;;;;;;9.43;61.32;99993.13;5013634;28;20057;-50
2021/11/20 04:20:58;;;;;;;8.02;5.25;;;;;;;9.42;61.73;100005.56;5012144;28;20029;-51
2021/11/20 04:23:23;;;;;;;8.35;5.38;;;;;;;9.55;61.42;100004.88;5013742;28;20065;-50
2021/11/20 04:25:49;;;;;;;9.68;5.63;;;;;;;9.42;61.94;100007.41;5013792;28;20077;-50
2021/11/20 04:28:14;;;;;;;8.48;5.00;;;;;;;9.58;61.49;100018.59;5013857;28;20065;-49
2021/11/20 04:30:41;;;;;;;11.23;5.57;;;;;;;9.59;61.54;100020.25;5013164;28;20044;-51
2021/11/20 04:33:07;;;;;;;8.55;5.50;;;;;;;9.75;60.88;100029.78;5013930;28;20462;-48
2021/11/20 04:35:32;;;;;;;10.00;5.10;;;;;;;9.86;60.64;100032.94;5013404;28;20033;-52
2021/11/20 04:37:57;;;;;;;7.05;5.25;;;;;;;9.65;61.58;100031.94;5013348;28;20486;-50
2021/11/20 04:40:23;;;;;;;7.55;5.10;;;;;;;9.69;61.28;100046.50;5013544;28;20029;-49
2021/11/20 04:42:49;;;;;;;6.88;4.97;;;;;;;9.53;62.13;100039.59;5013385;28;20418;-52
2021/11/20 04:45:16;;;;;;;7.60;5.10;;;;;;;9.65;61.58;100045.22;5013651;28;20440;-50
2021/11/20 04:47:42;;;;;;;9.55;5.60;;;;;;;10.03;60.26;100049.44;5013661;28;20105;-51
2021/11/20 04:50:08;;;;;;;8.73;5.72;;;;;;;9.97;60.47;100053.69;5013210;28;20077;-49
2021/11/20 04:52:33;;;;;;;10.15;7.22;;;;;;;10.09;60.27;100043.34;5011542;28;20034;-49
2021/11/20 04:54:59;;;;;;;7.60;5.45;;;;;;;10.14;60.03;100040.94;5013056;28;20412;-49
2021/11/20 04:57:24;;;;;;;7.60;5.22;;;;;;;10.28;59.75;100057.81;5012591;28;20033;-48
2021/11/20 04:59:50;;;;;;;7.28;4.82;;;;;;;10.37;58.73;100041.53;5013434;28;20037;-49
2021/11/20 05:02:15;;;;;;;8.05;5.43;;;;;;;10.00;60.17;100057.81;5013551;28;20025;-50
2021/11/20 05:04:41;;;;;;;7.15;5.22;;;;;;;9.97;60.49;100051.84;5013327;28;20049;-50
2021/11/20 05:07:07;;;;;;;8.88;5.40;;;;;;;10.11;60.40;100049.28;5013260;28;20450;-50
2021/11/20 05:09:32;;;;;;;8.98;5.78;;;;;;;10.34;59.37;100055.22;5013217;28;20473;-48
2021/11/20 05:11:58;;;;;;;9.25;6.20;;;;;;;10.34;59.50;100047.25;5013419;28;20056;-49
2021/11/20 05:14:24;;;;;;;8.80;6.13;;;;;;;10.20;60.44;100058.78;5013013;28;20052;-49
2021/11/20 05:16:49;;;;;;;10.38;6.35;;;;;;;9.91;61.51;100062.44;5012441;28;20409;-50
2021/11/20 05:19:15;;;;;;;10.98;6.45;;;;;;;9.97;61.23;100066.97;5012295;28;20100;-47
2021/11/20 05:21:40;;;;;;;8.30;5.90;;;;;;;9.93;61.54;100076.34;5012337;28;20029;-51
2021/11/20 05:24:06;;;;;;;10.57;6.28;;;;;;;10.05;61.22;100071.34;5012279;28;20103;-50
2021/11/20 05:26:31;;;;;;;10.80;6.50;;;;;;;10.06;62.07;100076.47;5011958;28;20029;-50
2021/11/20 05:31:25;;;;;;;11.10;6.65;;;;;;;10.14;61.22;100035.63;5012321;28;20095;-49
2021/11/20 05:33:51;;;;;;;10.38;6.20;;;;;;;10.42;60.86;100067.56;5012138;28;20018;-50
2021/11/20 05:36:17;;;;;;;11.52;7.00;;;;;;;10.29;60.89;100067.44;5011994;28;20040;-49
2021/11/20 05:38:43;;;;;;;10.98;6.63;;;;;;;10.32;60.88;100064.44;5010843;28;20113;-52
2021/11/20 05:41:09;;;;;;;8.80;6.07;;;;;;;10.20;60.99;100061.44;5012048;28;20438;-48
2021/11/20 05:43:34;;;;;;;9.93;6.47;;;;;;;10.23;60.88;100062.91;5012051;28;20099;-49
2021/11/20 05:46:06;;;;;;;10.88;5.97;;;;;;;10.34;60.80;100078.38;5012118;28;20036;-48
2021/11/20 05:48:32;;;;;;;9.77;6.20;;;;;;;10.32;60.76;100061.78;5012102;28;20454;-52
2021/11/20 05:50:57;;;;;;;10.15;6.75;;;;;;;10.49;60.20;100070.25;5012459;28;20056;-49
2021/11/20 05:53:24;;;;;;;8.95;5.70;;;;;;;10.29;61.02;100073.56;5012243;28;20096;-49
2021/11/20 05:55:50;;;;;;;10.50;6.30;;;;;;;10.47;59.98;100082.94;5011728;28;20057;-49
2021/11/20 05:58:16;;;;;;;9.07;6.30;;;;;;;10.51;60.00;100085.03;5011786;28;20092;-48
2021/11/20 06:00:43;;;;;;;12.30;7.60;;;;;;;10.60;60.03;100077.69;5012076;28;20026;-49
2021/11/20 06:03:09;;;;;;;11.90;8.40;;;;;;;10.53;60.44;100083.00;5011903;28;20084;-50
2021/11/20 06:05:35;;;;;;;9.00;5.90;;;;;;;10.51;60.44;100078.91;5011492;28;20462;-51
2021/11/20 06:08:00;;;;;;;9.00;6.05;;;;;;;10.73;59.93;100066.31;5011422;28;20038;-52
2021/11/20 06:10:26;;;;;;;7.38;5.38;;;;;;;10.86;59.79;100063.72;5011809;28;20033;-49
2021/11/20 06:12:51;;;;;;;8.50;5.60;;;;;;;10.73;60.03;100061.00;5010596;28;20037;-51
2021/11/20 06:15:17;;;;;;;9.00;6.10;;;;;;;10.95;59.60;100075.03;5010282;28;20445;-50
2021/11/20 06:17:42;;;;;;;10.07;6.07;;;;;;;11.03;58.46;100064.22;5009856;28;20034;-51
2021/11/20 06:20:08;;;;;;;10.13;6.30;;;;;;;10.95;59.56;100067.88;5010174;28;20121;-50
2021/11/20 06:22:34;;;;;;;9.25;6.70;;;;;;;11.22;59.67;100083.97;5010147;28;20025;-49
2021/11/20 06:24:59;;;;;;;9.35;5.85;;;;;;;11.23;58.78;100060.78;5010124;28;20080;-52
2021/11/20 06:27:25;;;;;;;8.55;6.28;;;;;;;11.34;58.12;100073.53;5007429;28;20642;-50
2021/11/20 06:29:50;;;;;;;10.18;6.50;;;;;;;11.33;58.57;100067.41;4998986;28;20022;-50
2021/11/20 06:32:16;;;;;;;10.68;6.60;;;;;;;11.38;57.67;100082.75;4989707;28;20073;-52
2021/11/20 06:34:41;;;;;;;8.65;5.60;;;;;;;11.31;58.57;100081.94;4990226;28;20026;-51
2021/11/20 06:37:07;;;;;;;8.48;5.88;;;;;;;11.35;58.65;100081.34;4999794;28;20080;-51
2021/11/20 06:39:34;;;;;;;7.30;5.28;;;;;;;11.57;57.50;100073.19;5010181;28;20034;-50
2021/11/20 06:42:03;;;;;;;8.73;5.40;;;;;;;11.80;57.15;100078.16;5009633;28;20026;-52
2021/11/20 06:44:28;;;;;;;9.25;5.45;;;;;;;11.89;56.97;100066.28;5008977;28;20053;-52
2021/11/20 06:46:54;;;;;;;10.50;5.15;;;;;;;11.68;57.90;100063.78;5009502;28;20167;-49
2021/11/20 06:49:19;;;;;;;8.57;5.82;;;;;;;12.10;56.81;100049.25;5009959;28;20096;-52
2021/11/20 06:51:45;;;;;;;7.93;5.40;;;;;;;11.96;56.97;100044.97;5010225;28;20030;-50
2021/11/20 06:54:12;;;;;;;9.75;6.18;;;;;;;12.36;56.22;100041.47;5009999;28;20038;-51
2021/11/20 06:56:53;;;;;;;8.07;5.63;;;;;;;12.69;55.33;100047.53;4990377;28;20038;-48
2021/11/20 07:01:48;;;;;;;10.32;5.63;;;;;;;12.45;55.43;100049.03;4990284;28;20058;-49
2021/11/20 07:04:24;;;;;;;8.77;6.43;;;;;;;12.73;55.11;100020.41;4987590;28;20069;-49
2021/11/20 07:06:54;;;;;;;9.95;6.13;;;;;;;12.49;55.33;100044.09;4980774;28;20702;-50
2021/11/20 07:09:20;;;;;;;11.98;6.38;;;;;;;12.68;55.80;100047.75;4988536;28;20018;-51
2021/11/20 07:11:45;;;;;;;9.63;7.00;;;;;;;12.72;56.11;100040.97;4989703;28;20497;-48
2021/11/20 07:14:11;;;;;;;14.32;6.82;;;;;;;12.68;55.62;100035.22;4990052;28;20105;-50
2021/11/20 07:16:37;;;;;;;12.15;7.20;;;;;;;12.68;55.78;100029.06;4989919;28;20378;-48
2021/11/20 07:19:03;;;;;;;11.27;6.47;;;;;;;12.67;56.28;100040.75;4989981;28;20026;-48
2021/11/20 07:21:28;;;;;;;12.05;7.10;;;;;;;12.56;57.00;100049.41;4989137;28;20030;-51
2021/11/20 07:23:59;;;;;;;10.55;7.28;;;;;;;12.34;57.95;100052.34;4988691;28;20042;-51
2021/11/20 07:26:24;;;;;;;10.23;7.35;;;;;;;12.61;57.14;100047.75;4988120;28;20026;-49
2021/11/20 07:28:51;;;;;;;11.27;6.75;;;;;;;12.76;56.92;100050.19;4988207;28;20521;-50
2021/11/20 07:31:16;;;;;;;13.30;8.70;;;;;;;13.11;56.11;100034.63;4988092;28;20029;-49
2021/11/20 07:33:42;;;;;;;11.55;7.80;;;;;;;13.16;55.59;100043.88;4988548;28;20390;-52
2021/11/20 07:36:08;;;;;;;12.00;8.20;;;;;;;13.48;55.24;100045.56;4988090;28;20027;-50
2021/11/20 07:38:36;;;;;;;11.18;7.68;;;;;;;13.74;54.34;100045.63;4986751;28;20030;-50
2021/11/20 07:41:02;;;;;;;10.82;7.70;;;;;;;14.08;53.89;100036.28;4987643;28;20022;-50
2021/11/20 07:43:27;;;;;;;14.98;7.38;;;;;;;14.41;52.73;100043.19;4986821;28;20391;-49
2021/11/20 07:45:53;;;;;;;16.38;7.85;;;;;;;14.39;51.95;100046.09;4991472;28;20022;-48
2021/11/20 07:48:21;;;;;;;13.95;7.25;;;;;;;14.41;52.21;100052.06;4993560;28;20030;-51
2021/11/20 07:50:47;;;;;;;10.85;7.05;;;;;;;14.33;52.64;100044.28;4993088;28;20136;-49
2021/11/20 07:53:12;;;;;;;13.93;7.85;;;;;;;14.77;51.05;100041.59;4993223;28;20109;-48
2021/11/20 07:55:38;;;;;;;13.05;7.03;;;;;;;14.98;51.18;100038.47;5004708;28;20410;-47
2021/11/20 07:58:04;;;;;;;10.77;7.32;;;;;;;15.38;50.10;100042.47;5012532;28;20520;-48
2021/11/20 08:00:29;;;;;;;9.90;7.18;;;;;;;15.06;50.57;100042.72;5012809;28;20097;-50
2021/11/20 08:02:55;;;;;;;10.52;6.57;;;;;;;14.30;52.09;100046.59;5013129;28;20022;-49
2021/11/20 08:05:20;;;;;;;12.02;7.30;;;;;;;14.85;51.51;100039.44;5012515;28;20460;-48
2021/11/20 08:07:46;;;;;;;14.10;7.30;;;;;;;15.14;50.66;100042.38;5012406;28;20014;-48
2021/11/20 08:10:14;;;;;;;11.60;7.03;;;;;;;14.80;51.49;100047.34;5012750;28;20413;-50
2021/11/20 08:12:40;;;;;;;9.30;6.73;;;;;;;15.18;50.19;100067.69;5012334;28;20022;-48
2021/11/20 08:15:06;;;;;;;11.88;6.50;;;;;;;14.76;50.87;100051.50;5011965;28;20018;-50
2021/11/20 08:17:32;;;;;;;11.32;6.38;;;;;;;15.23;50.22;100053.59;5012387;28;20425;-49
2021/11/20 08:19:57;;;;;;;11.32;6.35;;;;;;;14.98;49.94;100051.88;5011219;28;20089;-48
2021/11/20 08:22:23;;;;;;;9.93;5.93;;;;;;;15.42;49.12;100041.81;5012646;28;20092;-48
2021/11/20 08:24:48;;;;;;;11.32;6.10;;;;;;;15.72;47.99;100046.31;5012458;28;20032;-48
2021/11/20 08:27:14;;;;;;;8.23;5.85;;;;;;;15.68;47.96;100039.78;5012714;28;20105;-50
2021/11/20 08:29:40;;;;;;;7.60;5.43;;;;;;;15.53;48.49;100048.25;5012488;28;20496;-49
2021/11/20 08:32:07;;;;;;;9.27;6.00;;;;;;;15.38;48.81;100047.84;5012185;28;20370;-50
2021/11/20 08:34:32;;;;;;;6.97;5.40;;;;;;;15.52;49.18;100043.13;5012177;28;20415;-48
2021/11/20 08:37:00;;;;;;;8.43;5.75;;;;;;;15.29;49.64;100038.47;5011797;28;20080;-51
2021/11/20 08:39:26;;;;;;;9.57;5.90;;;;;;;15.44;49.32;100045.09;5012097;28;20030;-49
2021/11/20 08:41:51;;;;;;;8.63;5.93;;;;;;;15.81;48.42;100033.41;5012105;28;20488;-49
2021/11/20 08:44:17;;;;;;;7.60;5.68;;;;;;;16.10;48.08;100031.69;5011951;28;20018;-50
2021/11/20 08:46:43;;;;;;;8.40;5.63;;;;;;;15.83;48.38;100044.75;5011589;28;20540;-47
2021/11/20 08:49:09;;;;;;;7.95;5.80;;;;;;;15.55;48.27;100024.69;5011626;28;20034;-48
2021/11/20 08:51:36;;;;;;;8.93;6.28;;;;;;;15.29;49.75;100031.28;5010471;28;20079;-50
2021/11/20 08:54:02;;;;;;;11.48;5.97;;;;;;;15.53;49.60;100042.88;5011785;28;20072;-48
2021/11/20 08:56:28;;;;;;;11.60;6.30;;;;;;;15.69;48.93;100032.53;5011409;28;20125;-50
2021/11/20 08:58:53;;;;;;;9.25;6.32;;;;;;;15.89;48.36;100033.06;5012515;28;20022;-50
2021/11/20 09:01:22;;;;;;;9.00;5.90;;;;;;;15.97;47.83;100023.88;5012294;28;20030;-47
2021/11/20 09:03:51;;;;;;;10.98;6.25;;;;;;;16.08;48.44;100011.50;5012493;28;20565;-47
2021/11/20 09:06:30;;;;;;;9.02;6.72;;;;;;;16.05;47.65;100017.34;5010900;28;20505;-47
2021/11/20 09:09:00;;;;;;;9.27;5.97;;;;;;;16.33;47.28;100003.22;5012754;28;20458;-47
2021/11/20 09:11:34;;;;;;;10.25;6.45;;;;;;;16.23;47.92;100001.13;5012430;28;20265;-50
2021/11/20 09:14:19;;;;;;;10.38;6.53;;;;;;;16.28;48.33;100000.41;5012158;28;20050;-50
2021/11/20 09:16:45;;;;;;;9.43;6.50;;;;;;;16.45;47.17;99992.44;5011505;28;20034;-49
2021/11/20 09:19:10;;;;;;;8.13;5.78;;;;;;;16.18;47.85;99980.34;5011688;28;20033;-47
2021/11/20 09:21:36;;;;;;;14.00;5.50;;;;;;;16.10;47.75;99982.56;5011575;28;20029;-46
2021/11/20 09:24:02;;;;;;;11.55;6.03;;;;;;;16.10;48.08;99972.63;5011433;28;20040;-48
2021/11/20 09:26:28;;;;;;;16.02;5.93;;;;;;;16.09;47.81;99973.69;5011392;28;20017;-47
2021/11/20 09:28:54;;;;;;;10.32;5.57;;;;;;;15.62;48.07;99941.44;5011628;28;20022;-50
2021/11/20 09:31:20;;;;;;;10.18;5.95;;;;;;;16.12;47.49;99964.34;5010785;28;20296;-47
2021/11/20 09:33:46;;;;;;;7.88;5.65;;;;;;;15.98;48.44;99958.41;5011730;28;20440;-47
2021/11/20 09:36:11;;;;;;;9.63;5.68;;;;;;;16.01;48.73;99960.59;5011224;28;20022;-49
2021/11/20 09:38:38;;;;;;;9.07;5.60;;;;;;;15.78;48.55;99962.28;5010893;28;20048;-50
2021/11/20 09:41:08;;;;;;;7.75;5.20;;;;;;;15.95;48.11;99965.03;5011055;28;20101;-47
2021/11/20 09:43:34;;;;;;;;;;;;;;;15.83;48.25;99961.56;5010223;28;20036;-49
2021/11/20 09:46:25;;;;;;;7.50;5.15;;;;;;;15.94;48.82;99958.06;5009831;28;19965;-48
2021/11/20 09:48:59;;;;;;;7.90;4.72;;;;;;;16.28;47.38;99958.28;5011004;28;20033;-50
2021/11/20 09:51:33;;;;;;;12.70;5.40;;;;;;;16.14;47.35;99940.78;5009533;28;20030;-49
2021/11/20 09:54:06;;;;;;;9.43;5.35;;;;;;;16.28;46.98;99942.16;5009672;28;20032;-48
2021/11/20 09:56:38;;;;;;;7.82;4.90;;;;;;;16.04;47.87;99936.00;5008975;28;20550;-48
2021/11/20 09:59:07;;;;;;;7.82;4.88;;;;;;;15.94;47.46;99925.84;5010882;28;20033;-48
2021/11/20 10:01:46;;;;;;;9.45;4.85;;;;;;;15.95;47.21;99926.66;5011156;28;20026;-48
2021/11/20 10:04:32;;;;;;;6.90;5.00;;;;;;;15.90;48.15;99924.69;5011219;28;20380;-48
2021/11/20 10:07:08;;;;;;;10.35;5.15;;;;;;;16.19;48.15;99922.91;5009706;28;20025;-48
2021/11/20 10:09:34;;;;;;;8.75;5.05;;;;;;;16.16;48.10;99918.03;5010701;28;20440;-50
2021/11/20 10:12:28;;;;;;;10.50;4.85;;;;;;;16.11;47.54;99915.22;5010513;28;20026;-51
2021/11/20 10:15:16;;;;;;;8.80;5.07;;;;;;;16.44;47.14;99916.44;5009039;28;20038;-49
2021/11/20 10:17:53;;;;;;;6.60;4.70;;;;;;;16.66;46.50;99903.19;5010061;28;20022;-48
2021/11/20 10:20:25;;;;;;;5.15;4.53;;;;;;;16.63;45.94;99903.66;5009863;28;20025;-50
2021/11/20 10:23:05;;;;;;;7.75;4.10;;;;;;;16.82;45.53;99915.06;5010646;28;20022;-49
2021/11/20 10:25:47;;;;;;;8.52;4.53;;;;;;;17.10;45.16;99908.84;5008723;28;20033;-48
2021/11/20 10:28:34;;;;;;;7.90;5.38;;;;;;;16.75;45.97;99892.84;5008736;28;20025;-50
2021/11/20 10:31:26;;;;;;;6.63;4.82;;;;;;;16.72;46.28;99907.59;5010337;28;20032;-49
2021/11/20 10:34:22;;;;;;;7.47;4.93;;;;;;;16.82;45.51;99898.94;5009974;28;20025;-47
2021/11/20 10:36:54;;;;;;;8.57;4.78;;;;;;;16.95;45.64;99898.63;5009067;28;20117;-52
2021/11/20 10:39:33;;;;;;;9.23;5.93;;;;;;;17.12;45.21;99897.84;5009136;28;20091;-50
2021/11/20 10:42:03;;;;;;;9.45;6.05;;;;;;;17.37;44.75;99898.25;5009834;28;20508;-49
2021/11/20 10:44:31;;;;;;;7.28;4.82;;;;;;;17.08;45.20;99884.06;5010101;28;20499;-49
2021/11/20 10:47:26;;;;;;;7.47;5.03;;;;;;;17.07;45.25;99885.13;5009329;28;20482;-50
2021/11/20 10:50:02;;;;;;;6.35;4.97;;;;;;;17.12;44.66;99887.09;4993239;28;20029;-49
2021/11/20 10:52:52;;;;;;;10.82;4.80;;;;;;;16.98;45.09;99879.34;5008526;28;20026;-49
2021/11/20 10:55:42;;;;;;;7.88;4.90;;;;;;;17.28;44.41;99866.63;5009539;28;20172;-50
2021/11/20 10:58:28;;;;;;;7.97;5.55;;;;;;;17.18;44.63;99862.72;5009104;28;20470;-48
2021/11/20 11:01:02;;;;;;;6.75;5.10;;;;;;;16.90;45.11;99863.59;5008483;28;20029;-51
2021/11/20 11:03:59;;;;;;;7.55;5.38;;;;;;;17.16;44.61;99859.47;5009869;28;20034;-49
2021/11/20 11:06:43;;;;;;;9.90;5.70;;;;;;;17.14;44.63;99853.50;5008347;28;20030;-51
2021/11/20 11:09:31;;;;;;;11.40;5.28;;;;;;;17.53;44.56;99848.19;5010076;28;20045;-49
2021/11/20 11:12:12;;;;;;;8.38;5.00;;;;;;;17.70;43.71;99856.22;5008598;28;20049;-48
2021/11/20 11:14:55;;;;;;;10.68;4.80;;;;;;;17.55;43.99;99854.16;5008401;28;20045;-48
2021/11/20 11:17:43;;;;;;;7.28;5.20;;;;;;;17.68;43.64;99854.88;5008141;28;20548;-51
2021/11/20 11:20:28;;;;;;;8.93;5.47;;;;;;;17.69;43.63;99853.81;5013874;28;20034;-49
2021/11/20 11:23:14;;;;;;;8.25;5.50;;;;;;;17.96;43.13;99845.84;5013924;28;20465;-49
2021/11/20 11:25:52;;;;;;;9.60;5.32;;;;;;;17.75;43.33;99840.16;5011890;28;20034;-48
2021/11/20 11:28:27;;;;;;;6.85;5.10;;;;;;;17.71;43.73;99838.22;5013466;28;20107;-50
2021/11/20 11:31:37;;;;;;;6.15;4.97;;;;;;;18.16;42.47;99839.91;4996731;28;20049;-46
2021/11/20 11:34:24;;;;;;;10.52;4.97;;;;;;;17.73;43.28;99830.72;5011135;28;20092;-49
2021/11/20 11:37:06;;;;;;;6.93;4.68;;;;;;;17.55;43.65;99848.78;4992560;28;20124;-50
2021/11/20 11:39:34;;;;;;;7.55;4.57;;;;;;;17.96;42.92;99837.78;4992345;28;20062;-52
2021/11/20 11:42:09;;;;;;;9.85;4.72;;;;;;;17.92;42.59;99820.50;4993658;28;20530;-48
2021/11/20 11:44:54;;;;;;;9.98;5.00;;;;;;;18.00;42.74;99828.13;4993615;28;20036;-54
2021/11/20 11:47:56;;;;;;;7.35;5.05;;;;;;;17.64;43.53;99816.06;4994279;28;20383;-48